createdAt,value
2023-04-02T00:01:27.954Z,84.83
2023-04-02T00:04:16.248Z,84.35
2023-04-02T00:06:47.534Z,84.88
2023-04-02T00:09:32.014Z,84.62
2023-04-02T00:12:00.418Z,85.08
2023-04-02T00:14:31.518Z,84.72
2023-04-02T00:17:01.377Z,84.87
2023-04-02T00:19:32.932Z,84.56
2023-04-02T00:22:01.615Z,84.01
2023-04-02T00:24:29.238Z,84.36
2023-04-02T00:26:56.976Z,83.87
2023-04-02T00:29:24.713Z,83.71
2023-04-02T00:31:55.384Z,83.48
2023-04-02T00:34:25.397Z,83.50
2023-04-02T00:36:54.380Z,83.23
2023-04-02T00:39:24.119Z,83.93
2023-04-02T00:42:05.176Z,83.90
2023-04-02T00:44:38.089Z,83.29
2023-04-02T00:47:14.943Z,83.00
2023-04-02T00:49:42.830Z,83.28
2023-04-02T00:52:13.261Z,82.90
2023-04-02T00:54:43.898Z,82.47
2023-04-02T00:57:17.844Z,82.64
2023-04-02T00:59:52.442Z,82.73
2023-04-02T01:02:28.120Z,82.67
2023-04-02T01:04:57.361Z,81.82
2023-04-02T01:07:51.853Z,82.54
2023-04-02T01:10:34.001Z,82.30
2023-04-02T01:13:09.814Z,81.98
2023-04-02T01:15:41.398Z,82.68
2023-04-02T01:18:33.191Z,81.84
2023-04-02T01:21:28.213Z,82.44
2023-04-02T01:24:02.549Z,82.18
2023-04-02T01:26:48.090Z,81.50
2023-04-02T01:29:18.711Z,80.96
2023-04-02T01:31:47.673Z,81.28
2023-04-02T01:34:17.234Z,81.01
2023-04-02T01:36:53.147Z,80.86
2023-04-02T01:39:31.130Z,80.93
2023-04-02T01:42:04.559Z,81.19
2023-04-02T01:44:38.851Z,81.38
2023-04-02T01:47:08.724Z,80.93
2023-04-02T01:49:36.452Z,80.55
2023-04-02T01:52:04.119Z,81.10
2023-04-02T01:54:33.234Z,81.03
2023-04-02T01:57:01.091Z,80.57
2023-04-02T01:59:29.486Z,80.51
2023-04-02T02:02:02.710Z,80.77
2023-04-02T02:04:30.658Z,80.67
2023-04-02T02:07:00.724Z,80.93
2023-04-02T02:09:30.301Z,80.50
2023-04-02T02:11:58.527Z,81.55
2023-04-02T02:14:27.402Z,79.84
2023-04-02T02:16:56.667Z,80.04
2023-04-02T02:19:29.299Z,79.83
2023-04-02T02:22:09.117Z,79.40
2023-04-02T02:24:37.462Z,79.53
2023-04-02T02:27:29.344Z,79.77
2023-04-02T02:29:59.648Z,79.45
2023-04-02T02:32:30.905Z,79.58
2023-04-02T02:35:05.335Z,79.39
2023-04-02T02:37:36.759Z,79.16
2023-04-02T02:40:08.546Z,79.05
2023-04-02T02:42:38.084Z,79.75
2023-04-02T02:45:08.124Z,78.84
2023-04-02T02:47:37.527Z,78.91
2023-04-02T02:50:10.322Z,78.88
2023-04-02T02:52:39.981Z,78.29
2023-04-02T02:55:09.995Z,77.57
2023-04-02T02:57:41.002Z,77.01
2023-04-02T03:00:13.083Z,76.43
2023-04-02T03:02:43.336Z,76.06
2023-04-02T03:05:17.754Z,75.33
2023-04-02T03:07:45.639Z,74.50
2023-04-02T03:10:17.531Z,74.65
2023-04-02T03:12:48.016Z,74.65
2023-04-02T03:15:21.384Z,74.99
2023-04-02T03:17:52.849Z,74.72
2023-04-02T03:20:27.159Z,75.48
2023-04-02T03:22:58.876Z,75.61
2023-04-02T03:25:33.105Z,74.54
2023-04-02T03:28:03.658Z,75.31
2023-04-02T03:30:39.452Z,73.35
2023-04-02T03:33:12.289Z,74.20
2023-04-02T03:35:44.846Z,74.09
2023-04-02T03:38:16.395Z,74.08
2023-04-02T03:40:46.006Z,73.52
2023-04-02T03:43:17.957Z,72.82
2023-04-02T03:45:49.416Z,72.08
2023-04-02T03:48:19.670Z,72.35
2023-04-02T03:50:52.203Z,72.65
2023-04-02T03:53:20.008Z,72.57
2023-04-02T03:55:47.936Z,72.74
2023-04-02T03:58:19.999Z,72.18
2023-04-02T04:00:50.842Z,71.80
2023-04-02T04:03:21.466Z,72.27
2023-04-02T04:05:52.906Z,72.83
2023-04-02T04:08:23.866Z,72.06
2023-04-02T04:10:53.115Z,71.61
2023-04-02T04:13:24.482Z,71.70
2023-04-02T04:15:56.300Z,71.75
2023-04-02T04:18:34.905Z,71.88
2023-04-02T04:21:07.602Z,70.98
2023-04-02T04:23:37.884Z,70.83
2023-04-02T04:26:10.613Z,71.53
2023-04-02T04:28:43.746Z,71.62
2023-04-02T04:31:20.962Z,71.91
2023-04-02T04:33:54.833Z,70.76
2023-04-02T04:36:28.581Z,71.35
2023-04-02T04:38:59.337Z,71.85
2023-04-02T04:41:30.085Z,71.54
2023-04-02T04:44:02.308Z,71.35
2023-04-02T04:46:32.711Z,72.35
2023-04-02T04:49:03.987Z,71.75
2023-04-02T04:51:36.602Z,71.48
2023-04-02T04:54:04.360Z,71.92
2023-04-02T04:56:32.957Z,71.93
2023-04-02T04:59:05.433Z,72.21
2023-04-02T05:01:38.518Z,71.29
2023-04-02T05:04:13.061Z,70.45
2023-04-02T05:06:44.573Z,71.05
2023-04-02T05:09:18.879Z,70.94
2023-04-02T05:11:48.459Z,71.38
2023-04-02T05:14:22.748Z,71.16
2023-04-02T05:16:53.382Z,71.07
2023-04-02T05:19:24.933Z,70.93
2023-04-02T05:21:57.579Z,70.88
2023-04-02T05:24:48.791Z,71.00
2023-04-02T05:27:25.254Z,71.42
2023-04-02T05:29:57.075Z,70.83
2023-04-02T05:32:28.331Z,71.26
2023-04-02T05:34:57.338Z,70.86
2023-04-02T05:37:29.195Z,69.94
2023-04-02T05:39:58.383Z,70.92
2023-04-02T05:42:28.781Z,71.75
2023-04-02T05:45:06.779Z,71.23
2023-04-02T05:47:40.619Z,71.49
2023-04-02T05:50:18.927Z,71.04
2023-04-02T05:52:51.722Z,71.49
2023-04-02T05:55:33.517Z,71.61
2023-04-02T05:58:29.364Z,71.62
2023-04-02T06:01:15.492Z,70.89
2023-04-02T06:03:47.873Z,71.22
2023-04-02T06:06:20.632Z,70.96
2023-04-02T06:08:55.744Z,71.00
2023-04-02T06:11:26.603Z,70.73
2023-04-02T06:13:54.425Z,71.16
2023-04-02T06:16:24.795Z,71.36
2023-04-02T06:18:52.554Z,71.51
2023-04-02T06:21:22.129Z,70.74
2023-04-02T06:23:55.228Z,70.86
2023-04-02T06:26:26.424Z,71.12
2023-04-02T06:28:58.849Z,70.92
2023-04-02T06:31:29.689Z,70.84
2023-04-02T06:33:57.711Z,71.20
2023-04-02T06:36:26.626Z,70.51
2023-04-02T06:38:58.774Z,71.05
2023-04-02T06:41:26.632Z,70.37
2023-04-02T06:43:56.723Z,70.70
2023-04-02T06:46:29.672Z,71.39
2023-04-02T06:49:02.412Z,71.36
2023-04-02T06:51:31.783Z,70.49
2023-04-02T06:54:00.995Z,70.18
2023-04-02T06:56:41.698Z,71.07
2023-04-02T06:59:09.832Z,71.26
2023-04-02T07:01:41.152Z,71.53
2023-04-02T07:04:10.160Z,70.33
2023-04-02T07:06:37.890Z,71.02
2023-04-02T07:09:08.066Z,69.97
2023-04-02T07:11:36.103Z,70.29
2023-04-02T07:14:04.151Z,69.75
2023-04-02T07:16:33.597Z,70.04
2023-04-02T07:19:03.006Z,70.97
2023-04-02T07:21:31.075Z,69.61
2023-04-02T07:23:59.144Z,70.43
2023-04-02T07:26:28.978Z,68.61
2023-04-02T07:28:57.547Z,68.87
2023-04-02T07:31:27.051Z,68.80
2023-04-02T07:33:58.010Z,68.79
2023-04-02T07:36:25.837Z,68.63
2023-04-02T07:38:53.946Z,68.65
2023-04-02T07:41:22.082Z,69.04
2023-04-02T07:43:51.379Z,68.88
2023-04-02T07:46:20.289Z,69.51
2023-04-02T07:48:48.605Z,69.83
2023-04-02T07:51:18.529Z,69.24
2023-04-02T07:53:50.216Z,68.19
2023-04-02T07:56:20.051Z,68.44
2023-04-02T07:58:48.277Z,69.10
2023-04-02T08:01:19.964Z,68.87
2023-04-02T08:03:48.519Z,68.69
2023-04-02T08:06:16.731Z,68.28
2023-04-02T08:08:44.877Z,68.65
2023-04-02T08:11:12.751Z,69.10
2023-04-02T08:13:40.687Z,68.94
2023-04-02T08:16:09.021Z,68.17
2023-04-02T08:18:38.342Z,68.12
2023-04-02T08:21:07.765Z,68.32
2023-04-02T08:23:35.878Z,68.71
2023-04-02T08:26:03.627Z,69.02
2023-04-02T08:28:31.522Z,69.12
2023-04-02T08:30:59.338Z,68.97
2023-04-02T08:33:27.215Z,68.39
2023-04-02T08:35:56.370Z,69.03
2023-04-02T08:38:24.187Z,66.81
2023-04-02T08:40:53.883Z,66.38
2023-04-02T08:43:50.622Z,67.25
2023-04-02T08:46:22.848Z,65.91
2023-04-02T08:48:55.290Z,67.26
2023-04-02T08:51:26.471Z,66.34
2023-04-02T08:53:56.916Z,66.75
2023-04-02T08:56:29.964Z,65.48
2023-04-02T08:58:59.468Z,63.98
2023-04-02T09:01:37.684Z,64.77
2023-04-02T09:04:11.145Z,63.75
2023-04-02T09:06:40.266Z,62.88
2023-04-02T09:09:09.743Z,65.97
2023-04-02T09:11:42.920Z,65.50
2023-04-02T09:14:17.312Z,63.55
2023-04-02T09:16:46.479Z,64.62
2023-04-02T09:19:17.733Z,63.12
2023-04-02T09:21:53.723Z,63.38
2023-04-02T09:24:21.522Z,63.68
2023-04-02T09:26:49.382Z,64.81
2023-04-02T09:29:42.826Z,63.09
2023-04-02T09:32:27.943Z,61.09
2023-04-02T09:35:24.628Z,63.04
2023-04-02T09:38:19.000Z,60.43
2023-04-02T09:40:50.636Z,61.11
2023-04-02T09:43:19.982Z,62.87
2023-04-02T09:45:57.776Z,63.89
2023-04-02T09:48:27.544Z,60.46
2023-04-02T09:51:05.990Z,63.14
2023-04-02T09:53:37.383Z,63.59
2023-04-02T09:56:13.873Z,63.12
2023-04-02T09:58:42.321Z,63.11
2023-04-02T10:01:30.020Z,63.26
2023-04-02T10:03:59.265Z,61.25
2023-04-02T10:06:29.069Z,62.19
2023-04-02T10:08:58.754Z,60.29
2023-04-02T10:11:43.747Z,62.40
2023-04-02T10:14:20.365Z,60.12
2023-04-02T10:16:52.103Z,59.01
2023-04-02T10:19:26.496Z,58.25
2023-04-02T10:21:55.721Z,60.42
2023-04-02T10:24:29.569Z,58.59
2023-04-02T10:27:09.850Z,57.44
2023-04-02T10:29:52.583Z,59.87
2023-04-02T10:32:22.968Z,61.54
2023-04-02T10:34:55.379Z,59.17
2023-04-02T10:37:52.724Z,60.10
2023-04-02T10:40:28.414Z,57.77
2023-04-02T10:44:18.934Z,57.25
2023-04-02T10:46:55.083Z,60.43
2023-04-02T10:49:29.128Z,59.54
2023-04-02T10:52:00.830Z,56.80
2023-04-02T10:54:42.651Z,55.67
2023-04-02T10:57:17.807Z,59.57
2023-04-02T10:59:52.464Z,60.92
2023-04-02T11:02:31.738Z,60.40
2023-04-02T11:05:02.905Z,59.24
2023-04-02T11:07:44.681Z,57.22
2023-04-02T11:10:15.322Z,57.06
2023-04-02T11:12:47.079Z,57.37
2023-04-02T11:15:19.813Z,56.93
2023-04-02T11:17:48.069Z,57.73
2023-04-02T11:20:44.891Z,57.02
2023-04-02T11:23:13.963Z,56.37
2023-04-02T11:25:42.744Z,56.99
2023-04-02T11:28:15.565Z,58.04
2023-04-02T11:30:44.730Z,57.85
2023-04-02T11:33:44.707Z,55.86
2023-04-02T11:36:50.971Z,54.28
2023-04-02T11:39:53.489Z,53.61
2023-04-02T11:42:30.423Z,53.90
2023-04-02T11:45:01.331Z,54.59
2023-04-02T11:47:31.036Z,55.28
2023-04-02T11:50:04.154Z,54.62
2023-04-02T11:52:34.603Z,56.91
2023-04-02T11:55:06.096Z,54.95
2023-04-02T11:57:57.221Z,55.46
2023-04-02T12:00:34.178Z,58.27
2023-04-02T12:03:25.663Z,56.09
2023-04-02T12:05:58.555Z,54.06
2023-04-02T12:08:47.286Z,54.06
2023-04-02T12:11:19.088Z,54.78
2023-04-02T12:13:54.384Z,53.05
2023-04-02T12:16:24.230Z,53.30
2023-04-02T12:18:54.927Z,54.92
2023-04-02T12:21:24.359Z,53.38
2023-04-02T12:23:54.069Z,53.09
2023-04-02T12:26:32.148Z,55.39
2023-04-02T12:29:26.284Z,55.04
2023-04-02T12:31:55.510Z,51.31
2023-04-02T12:34:26.207Z,52.00
2023-04-02T12:36:55.858Z,52.64
2023-04-02T12:39:25.226Z,50.69
2023-04-02T12:41:55.354Z,52.45
2023-04-02T12:44:24.007Z,53.36
2023-04-02T12:46:52.390Z,52.87
2023-04-02T12:49:26.745Z,52.57
2023-04-02T12:51:55.926Z,51.13
2023-04-02T12:54:23.835Z,49.75
2023-04-02T12:56:51.953Z,50.12
2023-04-02T12:59:29.794Z,51.42
2023-04-02T13:01:59.231Z,51.51
2023-04-02T13:04:28.955Z,51.05
2023-04-02T13:06:57.504Z,50.56
2023-04-02T13:09:31.939Z,50.55
2023-04-02T13:12:00.452Z,50.84
2023-04-02T13:14:28.281Z,49.25
2023-04-02T13:16:56.469Z,49.25
2023-04-02T13:19:30.947Z,49.24
2023-04-02T13:22:00.120Z,53.25
2023-04-02T13:24:29.648Z,52.17
2023-04-02T13:26:58.962Z,52.04
2023-04-02T13:29:29.486Z,52.31
2023-04-02T13:31:59.124Z,52.09
2023-04-02T13:34:27.031Z,52.08
2023-04-02T13:36:57.391Z,50.13
2023-04-02T13:39:25.381Z,51.52
2023-04-02T13:41:54.767Z,51.83
2023-04-02T13:44:24.501Z,48.71
2023-04-02T13:46:52.918Z,50.71
2023-04-02T13:49:20.700Z,50.10
2023-04-02T13:51:50.540Z,49.23
2023-04-02T13:54:23.299Z,48.71
2023-04-02T13:56:51.711Z,46.55
2023-04-02T13:59:19.550Z,47.01
2023-04-02T14:01:48.570Z,47.05
2023-04-02T14:04:20.322Z,47.18
2023-04-02T14:07:11.975Z,50.45
2023-04-02T14:09:53.709Z,47.57
2023-04-02T14:12:29.855Z,48.83
2023-04-02T14:15:15.760Z,49.53
2023-04-02T14:17:53.299Z,48.89
2023-04-02T14:20:27.084Z,48.20
2023-04-02T14:23:05.937Z,47.86
2023-04-02T14:25:39.730Z,46.87
2023-04-02T14:28:12.380Z,47.81
2023-04-02T14:30:48.740Z,48.31
2023-04-02T14:33:24.651Z,49.11
2023-04-02T14:35:56.387Z,47.75
2023-04-02T14:38:29.826Z,47.03
2023-04-02T14:41:01.212Z,48.93
2023-04-02T14:43:32.401Z,46.85
2023-04-02T14:46:01.634Z,48.96
2023-04-02T14:48:37.997Z,45.72
2023-04-02T14:51:08.877Z,45.65
2023-04-02T14:53:49.473Z,46.25
2023-04-02T14:56:20.172Z,48.27
2023-04-02T14:58:51.755Z,46.58
2023-04-02T15:01:21.740Z,47.25
2023-04-02T15:03:53.183Z,45.77
2023-04-02T15:06:24.608Z,45.31
2023-04-02T15:09:08.348Z,45.54
2023-04-02T15:11:40.627Z,45.47
2023-04-02T15:14:14.033Z,46.08
2023-04-02T15:16:42.016Z,47.07
2023-04-02T15:19:13.422Z,45.27
2023-04-02T15:22:09.301Z,45.85
2023-04-02T15:24:44.109Z,47.80
2023-04-02T15:27:25.523Z,47.04
2023-04-02T15:29:58.629Z,47.57
2023-04-02T15:33:35.925Z,45.71
2023-04-02T15:36:18.743Z,46.82
2023-04-02T15:38:49.243Z,45.57
2023-04-02T15:41:23.602Z,45.50
2023-04-02T15:43:57.744Z,44.53
2023-04-02T15:46:28.316Z,47.53
2023-04-02T15:49:08.539Z,46.86
2023-04-02T15:52:01.378Z,48.64
2023-04-02T15:54:43.827Z,47.60
2023-04-02T15:58:20.855Z,45.66
2023-04-02T16:00:54.896Z,45.37
2023-04-02T16:03:35.009Z,44.82
2023-04-02T16:06:16.993Z,45.73
2023-04-02T16:08:57.360Z,45.94
2023-04-02T16:11:27.361Z,45.98
2023-04-02T16:14:02.347Z,46.05
2023-04-02T16:16:33.421Z,45.13
2023-04-02T16:19:04.554Z,46.65
2023-04-02T16:21:34.218Z,44.48
2023-04-02T16:24:01.885Z,45.74
2023-04-02T16:26:47.735Z,45.88
2023-04-02T16:29:35.607Z,46.16
2023-04-02T16:32:19.665Z,47.18
2023-04-02T16:34:52.470Z,47.76
2023-04-02T16:37:26.116Z,47.84
2023-04-02T16:39:58.246Z,46.25
2023-04-02T16:42:35.492Z,46.23
2023-04-02T16:45:17.397Z,46.59
2023-04-02T16:47:55.025Z,47.02
2023-04-02T16:50:31.970Z,47.36
2023-04-02T16:53:06.136Z,47.50
2023-04-02T16:55:44.396Z,48.44
2023-04-02T16:58:25.211Z,46.17
2023-04-02T17:00:57.455Z,47.92
2023-04-02T17:03:42.001Z,45.54
2023-04-02T17:06:11.002Z,46.92
2023-04-02T17:08:43.591Z,45.28
2023-04-02T17:11:29.367Z,45.91
2023-04-02T17:14:05.860Z,45.41
2023-04-02T17:16:38.111Z,45.55
2023-04-02T17:19:10.734Z,45.69
2023-04-02T17:21:41.319Z,45.45
2023-04-02T17:24:18.581Z,45.75
2023-04-02T17:26:48.371Z,44.88
2023-04-02T17:29:20.194Z,45.11
2023-04-02T17:31:50.845Z,46.38
2023-04-02T17:34:20.749Z,45.40
2023-04-02T17:36:55.594Z,46.49
2023-04-02T17:39:25.602Z,47.22
2023-04-02T17:41:57.398Z,46.69
2023-04-02T17:44:36.190Z,47.92
2023-04-02T17:47:10.551Z,48.34
2023-04-02T17:49:46.989Z,46.62
2023-04-02T17:52:18.076Z,47.16
2023-04-02T17:54:51.582Z,47.06
2023-04-02T17:57:33.473Z,46.20
2023-04-02T18:00:11.437Z,47.30
2023-04-02T18:02:55.203Z,47.03
2023-04-02T18:05:27.008Z,47.50
2023-04-02T18:08:00.642Z,46.92
2023-04-02T18:10:31.037Z,47.33
2023-04-02T18:13:00.918Z,46.56
2023-04-02T18:15:40.058Z,46.85
2023-04-02T18:18:16.572Z,47.29
2023-04-02T18:20:48.074Z,49.17
2023-04-02T18:23:30.153Z,48.88
2023-04-02T18:26:03.556Z,48.05
2023-04-02T18:28:47.285Z,49.31
2023-04-02T18:31:19.378Z,48.14
2023-04-02T18:34:09.260Z,47.89
2023-04-02T18:36:42.124Z,47.86
2023-04-02T18:39:15.516Z,48.00
2023-04-02T18:41:47.585Z,47.98
2023-04-02T18:44:30.734Z,48.37
2023-04-02T18:47:02.373Z,50.81
2023-04-02T18:49:36.912Z,50.29
2023-04-02T18:52:10.893Z,50.62
2023-04-02T18:54:41.258Z,49.63
2023-04-02T18:57:12.579Z,51.50
2023-04-02T18:59:42.799Z,49.78
2023-04-02T19:02:36.089Z,50.29
2023-04-02T19:05:07.244Z,51.89
2023-04-02T19:07:37.771Z,52.20
2023-04-02T19:10:25.886Z,53.22
2023-04-02T19:12:53.627Z,52.92
2023-04-02T19:15:22.890Z,53.19
2023-04-02T19:20:45.435Z,54.14
2023-04-02T19:23:24.610Z,52.19
2023-04-02T19:26:01.784Z,53.29
2023-04-02T19:28:32.431Z,52.41
2023-04-02T19:31:10.626Z,51.97
2023-04-02T19:33:43.823Z,52.08
2023-04-02T19:36:27.557Z,51.36
2023-04-02T19:39:05.102Z,52.09
2023-04-02T19:41:35.987Z,52.00
2023-04-02T19:44:04.011Z,52.85
2023-04-02T19:46:31.821Z,52.50
2023-04-02T19:49:03.734Z,53.28
2023-04-02T19:51:33.532Z,53.43
2023-04-02T19:54:01.514Z,53.06
2023-04-02T19:56:29.727Z,52.12
2023-04-02T19:58:58.297Z,51.71
2023-04-02T20:01:27.849Z,52.35
2023-04-02T20:03:55.650Z,52.20
2023-04-02T20:06:23.899Z,51.82
2023-04-02T20:08:53.059Z,52.21
2023-04-02T20:11:20.960Z,51.69
2023-04-02T20:13:50.119Z,51.79
2023-04-02T20:16:18.051Z,51.20
2023-04-02T20:18:45.762Z,52.51
2023-04-02T20:21:13.590Z,52.50
2023-04-02T20:23:41.423Z,51.93
2023-04-02T20:26:10.512Z,51.15
2023-04-02T20:28:38.374Z,51.44
2023-04-02T20:31:08.391Z,51.67
2023-04-02T20:33:36.730Z,51.82
2023-04-02T20:36:06.791Z,51.87
2023-04-02T20:38:35.923Z,51.46
2023-04-02T20:41:04.776Z,50.97
2023-04-02T20:43:34.904Z,51.34
2023-04-02T20:46:05.597Z,50.55
2023-04-02T20:48:33.732Z,51.27
2023-04-02T20:51:03.035Z,52.26
2023-04-02T20:53:31.596Z,51.13
2023-04-02T20:56:03.862Z,50.77
2023-04-02T20:58:33.140Z,50.70
2023-04-02T21:01:11.844Z,50.40
2023-04-02T21:03:40.586Z,50.50
2023-04-02T21:06:08.854Z,51.38
2023-04-02T21:08:37.034Z,50.25
2023-04-02T21:11:06.321Z,50.45
2023-04-02T21:13:36.791Z,51.07
2023-04-02T21:16:05.138Z,51.50
2023-04-02T21:18:33.262Z,50.72
2023-04-02T21:21:02.506Z,50.72
2023-04-02T21:23:30.216Z,50.72
2023-04-02T21:25:59.353Z,50.18
2023-04-02T21:28:27.401Z,51.52
2023-04-02T21:31:04.820Z,50.49
2023-04-02T21:33:34.134Z,50.17
2023-04-02T21:36:06.933Z,51.22
2023-04-02T21:38:34.683Z,50.49
2023-04-02T21:41:13.167Z,50.27
2023-04-02T21:43:40.988Z,50.60
2023-04-02T21:46:10.343Z,50.55
2023-04-02T21:48:40.619Z,50.82
2023-04-02T21:51:09.961Z,50.99
2023-04-02T21:53:38.941Z,50.77
2023-04-02T21:56:08.505Z,50.56
2023-04-02T21:58:36.529Z,50.98
2023-04-02T22:01:07.142Z,50.81
2023-04-02T22:03:38.985Z,50.73
2023-04-02T22:06:08.647Z,50.62
2023-04-02T22:08:36.786Z,50.83
2023-04-02T22:11:09.264Z,50.99
2023-04-02T22:13:37.373Z,51.07
2023-04-02T22:16:07.972Z,50.74
2023-04-02T22:18:35.836Z,50.84
2023-04-02T22:21:05.080Z,51.07
2023-04-02T22:23:33.130Z,51.18
2023-04-02T22:26:01.656Z,51.61
2023-04-02T22:28:30.141Z,51.54
2023-04-02T22:31:05.522Z,51.63
2023-04-02T22:33:33.550Z,51.33
2023-04-02T22:36:02.037Z,51.20
2023-04-02T22:38:31.723Z,51.79
2023-04-02T22:41:07.448Z,51.92
2023-04-02T22:43:35.479Z,51.76
2023-04-02T22:46:03.546Z,52.10
2023-04-02T22:48:31.290Z,52.27
2023-04-02T22:50:59.367Z,51.83
2023-04-02T22:53:27.432Z,52.57
2023-04-02T22:55:56.617Z,53.21
2023-04-02T22:58:26.622Z,53.00
2023-04-02T23:00:54.279Z,53.03
2023-04-02T23:03:22.131Z,53.19
2023-04-02T23:05:59.547Z,53.10
2023-04-02T23:08:27.277Z,53.06
2023-04-02T23:11:02.890Z,53.45
2023-04-02T23:13:31.101Z,53.70
2023-04-02T23:15:59.080Z,53.26
2023-04-02T23:18:26.867Z,53.70
2023-04-02T23:20:55.339Z,53.93
2023-04-02T23:23:23.208Z,53.92
2023-04-02T23:25:51.018Z,54.46
2023-04-02T23:28:20.204Z,54.39
2023-04-02T23:30:47.930Z,54.81
2023-04-02T23:33:15.612Z,54.45
2023-04-02T23:35:43.308Z,54.75
2023-04-02T23:38:11.226Z,54.76
2023-04-02T23:40:38.928Z,55.49
2023-04-02T23:43:06.611Z,54.84
2023-04-02T23:45:35.668Z,54.98
2023-04-02T23:48:03.386Z,55.06
2023-04-02T23:50:31.042Z,55.54
2023-04-02T23:52:58.840Z,55.87
2023-04-02T23:55:26.562Z,55.87
2023-04-02T23:57:54.206Z,56.45
